CheckWX is a tool to help pilots better visualize weather data.  It is not intended as a substitute for an official pre-flight weather briefing.

19:30:57 UTC

UCFO TAF
Osh
Osh
TAF UCFO 272250Z 2800/2824 32003G08MPS 9999 FEW050CB SCT100 TEMPO 2800/2806 16003G08MPS 5000 HZ SCT030CB PROB40 TEMPO 2800/2806 TS BECMG 2812/2814 18005MPS

May-28@
00:00 UTC

May-28 @ 00:00 UTC

May-28@
12:00 UTC

May-28 @ 12:00 UTC

TAF UCFO 272250Z 2800/2824 32003G08MPS 9999 FEW050CB SCT100

Expired

Wind
  • 320° at 6 KTS
  • {Gusting to 16 KTS
Cloud Levels
  • Few at 5,000' AGL
  • Scattered at 10,000' AGL

May-28@
00:00 UTC

May-28 @ 00:00 UTC

May-28@
06:00 UTC

May-28 @ 06:00 UTC

TEMPO 2800/2806 16003G08MPS 5000 HZ SCT030CB

Expired

Wind
  • 160° at 6 KTS
  • {Gusting to 16 KTS
Conditions
Haze
Cloud Levels
  • Scattered at 3,000' AGL

May-28@
00:00 UTC

May-28 @ 00:00 UTC

May-28@
06:00 UTC

May-28 @ 06:00 UTC

PROB40 TEMPO 2800/2806 TS

Expired

Conditions
Thunderstorm
Cloud Levels

May-28@
12:00 UTC

May-28 @ 12:00 UTC

May-29@
00:00 UTC

May-29 @ 00:00 UTC

BECMG 2812/2814 18005MPS

Becoming

Becoming Conditions expected by Thu, May 28, 2020 @ 14:00 UTC

Wind
  • 180° at 10 KTS
Cloud Levels
  • Few at 5,000' AGL
  • Scattered at 10,000' AGL